Time;durP1;ratioP1;P1;durP2;ratioP2;P2;SDS_P1;SDS_P2;PMS_P1;PMS_P2;Temp;Humidity;BMP_temperature;BMP_pressure;BME280_temperature;BME280_humidity;BME280_pressure;Samples;Min_cycle;Max_cycle;Signal;HPM_P1;HPM_P2
2023/09/29 00:01:48;;;;;;;10.40;9.20;;;;;;;23.50;43.79;101901.52;107111;1260;25340;-56
2023/09/29 00:04:15;;;;;;;15.00;8.80;;;;;;;23.49;43.88;101902.78;107215;1254;25340;-56
2023/09/29 00:06:42;;;;;;;12.80;8.90;;;;;;;23.48;43.93;101905.52;107197;1261;25480;-56
2023/09/29 00:09:12;;;;;;;9.50;8.50;;;;;;;23.49;44.06;101905.83;107128;1257;25337;-55
2023/09/29 00:11:41;;;;;;;13.50;8.80;;;;;;;23.48;44.09;101905.35;107141;1251;25515;-56
2023/09/29 00:14:08;;;;;;;11.80;8.20;;;;;;;23.43;44.30;101910.40;107121;1265;24228;-56
2023/09/29 00:16:34;;;;;;;15.40;8.50;;;;;;;23.45;44.51;101908.17;107035;1254;25322;-56
2023/09/29 00:19:02;;;;;;;13.20;8.80;;;;;;;23.45;44.50;101908.38;107093;1262;25322;-56
2023/09/29 00:21:29;;;;;;;11.40;8.50;;;;;;;23.40;44.85;101908.63;106861;1270;25401;-56
2023/09/29 00:23:57;;;;;;;12.20;8.40;;;;;;;23.39;45.08;101907.46;106849;1267;25328;-56
2023/09/29 00:26:24;;;;;;;10.20;7.90;;;;;;;23.36;45.35;101907.06;107127;1254;25446;-56
2023/09/29 00:28:51;;;;;;;12.60;8.70;;;;;;;23.34;45.61;101907.20;107027;1267;22523;-55
2023/09/29 00:31:19;;;;;;;9.80;8.50;;;;;;;23.35;45.73;101907.64;107046;1254;25346;-58
2023/09/29 00:33:46;;;;;;;13.20;7.90;;;;;;;23.36;45.96;101908.13;107103;1254;22531;-55
2023/09/29 00:36:13;;;;;;;10.60;7.70;;;;;;;23.32;46.07;101909.77;107119;1264;25350;-56
2023/09/29 00:38:40;;;;;;;11.80;8.10;;;;;;;23.34;45.91;101909.34;107196;1263;25405;-56
2023/09/29 00:41:07;;;;;;;11.80;7.80;;;;;;;23.34;45.80;101908.81;106914;1257;23141;-57
2023/09/29 00:43:35;;;;;;;11.60;8.40;;;;;;;23.34;45.86;101908.42;106873;1257;25399;-57
2023/09/29 00:46:04;;;;;;;11.90;7.50;;;;;;;23.39;45.71;101905.67;107129;1261;25321;-57
2023/09/29 00:48:33;;;;;;;11.50;7.80;;;;;;;23.38;45.77;101905.17;107004;1263;22716;-57
2023/09/29 00:51:00;;;;;;;9.90;8.00;;;;;;;23.38;45.92;101903.92;107138;1255;25243;-57
2023/09/29 00:53:28;;;;;;;11.10;7.40;;;;;;;23.38;45.87;101901.09;107142;1264;25331;-57
2023/09/29 00:55:55;;;;;;;12.90;7.90;;;;;;;23.35;45.79;101903.77;107086;1261;25392;-55
2023/09/29 00:58:23;;;;;;;9.80;7.40;;;;;;;23.36;45.98;101905.66;107004;1269;25333;-55
2023/09/29 01:00:52;;;;;;;9.00;7.30;;;;;;;23.36;46.03;101908.85;107187;1267;25346;-55
2023/09/29 01:03:19;;;;;;;9.30;7.80;;;;;;;23.33;46.42;101906.56;107118;1260;25480;-56
2023/09/29 01:05:49;;;;;;;9.90;6.50;;;;;;;23.32;46.55;101908.73;107184;1257;25344;-56
2023/09/29 01:08:22;;;;;;;9.80;6.60;;;;;;;23.36;46.72;101909.36;106831;1267;25364;-56
2023/09/29 01:10:49;;;;;;;11.40;6.90;;;;;;;23.38;47.08;101912.98;107067;1254;24267;-56
2023/09/29 01:13:17;;;;;;;9.10;7.10;;;;;;;23.40;47.54;101913.22;107071;1264;25493;-56
2023/09/29 01:15:46;;;;;;;10.70;7.20;;;;;;;23.42;47.88;101914.16;107111;1257;22526;-56
2023/09/29 01:18:16;;;;;;;11.50;6.70;;;;;;;23.47;48.15;101911.94;107120;1261;22581;-56
2023/09/29 01:20:43;;;;;;;9.00;6.90;;;;;;;23.50;48.21;101909.68;107177;1263;22618;-55
2023/09/29 01:23:10;;;;;;;10.40;7.00;;;;;;;23.53;48.63;101908.23;107125;1267;25468;-57
2023/09/29 01:25:38;;;;;;;10.70;7.40;;;;;;;23.56;48.89;101907.33;106839;1260;25427;-56
2023/09/29 01:28:07;;;;;;;10.60;7.30;;;;;;;23.59;49.26;101903.61;107164;1251;25386;-56
2023/09/29 01:30:34;;;;;;;11.70;7.30;;;;;;;23.64;49.44;101903.73;106885;1257;22646;-56
2023/09/29 01:33:02;;;;;;;9.10;7.00;;;;;;;23.68;49.55;101905.91;107105;1257;23874;-56
2023/09/29 01:35:29;;;;;;;11.10;7.00;;;;;;;23.71;49.91;101901.85;107108;1261;22527;-56
2023/09/29 01:38:00;;;;;;;14.10;7.50;;;;;;;23.73;50.07;101902.08;107113;1257;25440;-57
2023/09/29 01:40:27;;;;;;;11.60;6.40;;;;;;;23.78;50.17;101906.05;107173;1251;25227;-58
2023/09/29 01:42:56;;;;;;;15.00;7.30;;;;;;;23.82;49.90;101908.45;106771;1264;25790;-56
2023/09/29 01:45:24;;;;;;;10.80;6.60;;;;;;;23.85;49.80;101913.08;106992;1251;22536;-56
2023/09/29 01:47:51;;;;;;;9.30;6.10;;;;;;;23.88;49.57;101914.65;107018;1251;22538;-58
2023/09/29 01:50:20;;;;;;;17.60;7.40;;;;;;;23.94;49.56;101919.09;107134;1267;25322;-58
2023/09/29 01:52:48;;;;;;;12.10;7.30;;;;;;;24.01;49.39;101916.02;107137;1251;22653;-59
2023/09/29 01:55:16;;;;;;;15.40;7.20;;;;;;;24.05;49.19;101913.67;107199;1251;25350;-56
2023/09/29 01:57:43;;;;;;;9.50;6.70;;;;;;;24.10;48.88;101916.55;107145;1255;25395;-56
2023/09/29 02:00:14;;;;;;;14.10;7.80;;;;;;;24.14;48.89;101914.71;107150;1256;25523;-56
2023/09/29 02:02:43;;;;;;;;;;;;;;;24.18;48.70;101912.69;107170;1254;25349;-56
2023/09/29 02:05:11;;;;;;;9.00;6.30;;;;;;;24.21;48.60;101911.63;106873;1270;24176;-54
2023/09/29 02:07:39;;;;;;;12.80;7.10;;;;;;;24.22;48.53;101914.20;107157;1258;25381;-57
2023/09/29 02:10:10;;;;;;;10.40;7.40;;;;;;;24.24;48.21;101914.65;107213;1264;25481;-56
2023/09/29 02:12:46;;;;;;;9.80;6.60;;;;;;;24.25;48.13;101912.77;107183;1252;25349;-57
2023/09/29 02:15:17;;;;;;;8.90;6.40;;;;;;;24.28;47.83;101916.42;107110;1256;22526;-57
2023/09/29 02:17:44;;;;;;;11.00;7.40;;;;;;;24.30;47.75;101917.02;107065;1261;25322;-57
2023/09/29 02:20:14;;;;;;;8.80;6.70;;;;;;;24.31;47.51;101916.73;107143;1251;25349;-56
2023/09/29 02:22:42;;;;;;;14.00;7.60;;;;;;;24.33;47.74;101916.11;107172;1263;25305;-56
2023/09/29 02:25:17;;;;;;;13.20;7.70;;;;;;;24.34;47.67;101917.48;106815;1267;25328;-56
2023/09/29 02:27:46;;;;;;;9.00;7.50;;;;;;;24.35;47.70;101914.37;107085;1251;25401;-55
2023/09/29 02:30:13;;;;;;;11.50;7.00;;;;;;;24.35;47.77;101915.23;106308;1251;1002822;-55
2023/09/29 02:32:41;;;;;;;12.90;7.40;;;;;;;24.36;47.83;101911.31;107098;1268;25395;-56
2023/09/29 02:35:09;;;;;;;8.90;7.10;;;;;;;24.36;47.90;101915.20;107126;1266;25229;-56
2023/09/29 02:37:37;;;;;;;13.00;7.20;;;;;;;24.35;47.94;101914.00;106922;1254;22710;-56
2023/09/29 02:40:07;;;;;;;11.20;7.70;;;;;;;24.34;48.00;101913.16;107160;1257;25227;-55
2023/09/29 02:42:34;;;;;;;8.60;7.00;;;;;;;24.34;48.04;101911.05;107113;1251;25223;-56
2023/09/29 02:45:01;;;;;;;12.50;8.10;;;;;;;24.35;47.97;101910.48;107101;1265;22556;-56
2023/09/29 02:47:29;;;;;;;12.50;7.20;;;;;;;24.35;48.03;101908.14;107136;1257;24228;-56
2023/09/29 02:49:57;;;;;;;15.00;8.10;;;;;;;24.36;48.09;101910.07;107136;1266;25319;-55
2023/09/29 02:52:28;;;;;;;14.80;8.50;;;;;;;24.36;48.29;101908.80;107143;1251;22531;-56
2023/09/29 02:54:55;;;;;;;12.60;8.20;;;;;;;24.35;48.18;101910.98;106877;1267;25369;-56
2023/09/29 02:57:22;;;;;;;13.00;8.20;;;;;;;24.35;48.27;101916.10;107112;1264;25340;-56
2023/09/29 02:59:50;;;;;;;13.70;7.30;;;;;;;24.35;48.24;101915.42;106903;1266;25340;-56
2023/09/29 03:02:18;;;;;;;9.50;7.40;;;;;;;24.35;48.22;101915.60;107093;1251;25349;-56
2023/09/29 03:04:47;;;;;;;12.00;7.40;;;;;;;24.35;48.19;101916.48;107051;1254;22526;-56
2023/09/29 03:07:14;;;;;;;13.70;7.30;;;;;;;24.36;48.26;101919.10;107061;1255;25395;-56
2023/09/29 03:09:41;;;;;;;11.60;7.00;;;;;;;24.37;48.27;101920.96;107186;1255;25364;-56
2023/09/29 03:12:09;;;;;;;14.90;7.40;;;;;;;24.38;48.21;101920.22;106919;1260;25442;-56
2023/09/29 03:14:36;;;;;;;12.60;8.00;;;;;;;24.38;48.28;101922.52;107143;1254;25356;-56
2023/09/29 03:17:04;;;;;;;9.60;7.70;;;;;;;24.39;48.24;101921.24;106944;1263;25471;-56
2023/09/29 03:19:31;;;;;;;9.10;7.30;;;;;;;24.39;48.21;101919.81;107189;1255;25324;-56
2023/09/29 03:22:01;;;;;;;14.60;8.10;;;;;;;24.38;48.05;101923.02;107120;1254;25386;-57
2023/09/29 03:24:28;;;;;;;13.70;8.20;;;;;;;24.38;47.77;101921.66;106207;1256;1003695;-56
2023/09/29 03:26:57;;;;;;;9.70;7.50;;;;;;;24.37;47.83;101927.52;107000;1254;24156;-56
2023/09/29 03:29:24;;;;;;;13.10;7.50;;;;;;;24.38;47.72;101930.30;106994;1254;25324;-55
2023/09/29 03:31:53;;;;;;;13.40;7.70;;;;;;;24.38;47.69;101928.15;106973;1256;25392;-56
2023/09/29 03:34:20;;;;;;;9.30;8.00;;;;;;;24.39;47.61;101932.22;106995;1261;25321;-56
2023/09/29 03:36:50;;;;;;;11.70;8.30;;;;;;;24.40;47.52;101926.65;106834;1257;25359;-56
2023/09/29 03:39:18;;;;;;;9.80;8.50;;;;;;;24.41;47.43;101926.42;106767;1273;25481;-56
2023/09/29 03:41:46;;;;;;;15.80;9.50;;;;;;;24.40;47.31;101927.01;107074;1263;25217;-57
2023/09/29 03:44:13;;;;;;;15.20;9.10;;;;;;;24.41;47.32;101930.52;106955;1254;22646;-56
2023/09/29 03:46:40;;;;;;;11.50;8.90;;;;;;;24.40;47.56;101930.55;107059;1254;25346;-56
2023/09/29 03:49:10;;;;;;;14.00;9.20;;;;;;;24.40;47.51;101934.27;107006;1257;25337;-56
2023/09/29 03:51:38;;;;;;;14.30;8.80;;;;;;;24.40;47.49;101935.89;107038;1257;25334;-56
2023/09/29 03:54:09;;;;;;;10.80;8.30;;;;;;;24.39;47.49;101932.91;107032;1258;25506;-56
2023/09/29 03:56:36;;;;;;;14.00;8.60;;;;;;;24.39;47.52;101933.09;106803;1275;25286;-56
2023/09/29 03:59:03;;;;;;;10.30;8.30;;;;;;;24.40;47.58;101934.99;107099;1257;25312;-56
2023/09/29 04:01:30;;;;;;;11.10;8.40;;;;;;;24.40;47.57;101941.69;107098;1264;25574;-56
2023/09/29 04:03:57;;;;;;;12.40;7.70;;;;;;;24.41;47.61;101936.70;107145;1257;22520;-56
2023/09/29 04:06:25;;;;;;;14.90;7.90;;;;;;;24.41;47.66;101938.30;107092;1257;25379;-56
2023/09/29 04:08:54;;;;;;;13.30;8.30;;;;;;;24.41;47.65;101937.23;107220;1251;25247;-56
2023/09/29 04:11:21;;;;;;;14.60;8.10;;;;;;;24.41;47.60;101938.83;107219;1254;25343;-57
2023/09/29 04:13:48;;;;;;;12.90;8.60;;;;;;;24.41;47.75;101940.07;107161;1254;25274;-56
2023/09/29 04:16:17;;;;;;;12.60;8.00;;;;;;;24.40;47.74;101941.17;107115;1254;25331;-56
2023/09/29 04:18:44;;;;;;;9.50;8.00;;;;;;;24.40;47.68;101943.14;107170;1250;25346;-56
2023/09/29 04:21:15;;;;;;;12.40;8.30;;;;;;;24.40;47.57;101945.25;106913;1259;25337;-57
2023/09/29 04:23:46;;;;;;;13.40;8.30;;;;;;;24.40;47.52;101943.86;107082;1252;22527;-56
2023/09/29 04:26:19;;;;;;;12.40;8.20;;;;;;;24.41;47.64;101942.02;107160;1254;25347;-56
2023/09/29 04:28:46;;;;;;;10.50;8.10;;;;;;;24.41;47.52;101943.95;106825;1257;22528;-57
2023/09/29 04:31:13;;;;;;;12.20;8.20;;;;;;;24.42;47.47;101945.17;107187;1250;25337;-57
2023/09/29 04:33:41;;;;;;;10.00;7.70;;;;;;;24.41;47.46;101952.10;107104;1252;25396;-57
2023/09/29 04:36:08;;;;;;;11.80;8.20;;;;;;;24.41;47.09;101955.33;107097;1253;25321;-57
2023/09/29 04:38:36;;;;;;;12.20;8.00;;;;;;;24.41;46.97;101951.77;107258;1256;25395;-56
2023/09/29 04:41:04;;;;;;;15.60;8.10;;;;;;;24.40;47.05;101955.90;107089;1260;24276;-56
2023/09/29 04:43:31;;;;;;;11.20;8.00;;;;;;;24.40;47.17;101955.52;107084;1250;22534;-57
2023/09/29 04:45:58;;;;;;;11.30;7.80;;;;;;;24.42;47.27;101951.90;107122;1251;25331;-56
2023/09/29 04:48:25;;;;;;;10.00;7.50;;;;;;;24.42;47.13;101953.14;107060;1264;25395;-57
2023/09/29 04:50:52;;;;;;;14.10;8.20;;;;;;;24.42;47.12;101956.48;107157;1254;24253;-55
2023/09/29 04:53:19;;;;;;;10.80;8.40;;;;;;;24.43;47.26;101955.54;107170;1254;25323;-57
2023/09/29 04:55:46;;;;;;;10.90;8.20;;;;;;;24.44;47.24;101958.47;106894;1260;25472;-57
2023/09/29 04:58:13;;;;;;;13.60;7.10;;;;;;;24.46;47.17;101961.23;106831;1266;25376;-56
2023/09/29 05:00:40;;;;;;;13.50;8.10;;;;;;;24.48;47.30;101958.45;107134;1262;25319;-56
2023/09/29 05:03:07;;;;;;;10.30;7.30;;;;;;;24.50;47.27;101960.98;107132;1251;25321;-57
2023/09/29 05:05:35;;;;;;;13.60;8.40;;;;;;;24.50;47.27;101957.04;107085;1256;25347;-57
2023/09/29 05:08:02;;;;;;;13.10;8.40;;;;;;;24.50;47.29;101958.13;107176;1250;24199;-57
2023/09/29 05:10:29;;;;;;;12.30;7.80;;;;;;;24.50;47.43;101956.19;107111;1251;23711;-57
2023/09/29 05:12:56;;;;;;;10.40;7.80;;;;;;;24.49;47.49;101956.58;106789;1273;25408;-56
2023/09/29 05:15:23;;;;;;;10.40;8.60;;;;;;;24.49;47.45;101962.62;107235;1263;25340;-56
2023/09/29 05:17:50;;;;;;;14.00;9.20;;;;;;;24.48;47.12;101961.80;107116;1254;25408;-56
2023/09/29 05:20:18;;;;;;;12.10;8.90;;;;;;;24.47;46.93;101961.55;107181;1254;22533;-56
2023/09/29 05:22:45;;;;;;;14.80;9.40;;;;;;;24.47;46.99;101965.21;107128;1254;25460;-56
2023/09/29 05:25:12;;;;;;;12.20;9.20;;;;;;;24.47;46.88;101963.83;107118;1254;25346;-56
2023/09/29 05:27:40;;;;;;;19.10;10.30;;;;;;;24.47;46.89;101964.89;107124;1261;25328;-59
2023/09/29 05:30:07;;;;;;;11.20;10.10;;;;;;;24.47;46.78;101965.22;106738;1267;25322;-58
2023/09/29 05:32:34;;;;;;;15.70;10.00;;;;;;;24.48;46.70;101961.27;106915;1250;25468;-57
2023/09/29 05:35:02;;;;;;;23.40;11.00;;;;;;;24.48;46.47;101965.73;106981;1263;25322;-58
2023/09/29 05:37:30;;;;;;;19.10;11.10;;;;;;;24.48;46.48;101962.88;106917;1260;22522;-56
2023/09/29 05:40:02;;;;;;;12.90;10.30;;;;;;;24.49;46.58;101964.39;107133;1261;25516;-56
2023/09/29 05:42:30;;;;;;;14.60;10.30;;;;;;;24.50;46.57;101963.45;107108;1250;25458;-56
2023/09/29 05:45:15;;;;;;;13.00;9.50;;;;;;;24.51;46.81;101966.56;107049;1254;23360;-56
2023/09/29 05:47:42;;;;;;;12.80;9.70;;;;;;;24.52;46.81;101967.55;107190;1255;25322;-57
2023/09/29 05:50:10;;;;;;;16.10;10.30;;;;;;;24.54;46.97;101968.38;107073;1254;25353;-57
2023/09/29 05:52:47;;;;;;;11.80;10.00;;;;;;;24.54;46.81;101968.54;107077;1251;23642;-56
2023/09/29 05:55:34;;;;;;;12.00;10.40;;;;;;;24.53;46.62;101969.64;106911;1260;25359;-57
2023/09/29 05:58:01;;;;;;;11.80;9.60;;;;;;;24.53;46.87;101969.86;107128;1263;24302;-56
2023/09/29 06:00:29;;;;;;;14.60;9.60;;;;;;;24.53;46.74;101973.17;107148;1263;22524;-56
2023/09/29 06:02:59;;;;;;;13.60;9.50;;;;;;;24.52;46.65;101973.25;106929;1254;25475;-56
2023/09/29 06:05:27;;;;;;;13.90;9.90;;;;;;;24.52;46.65;101978.26;107157;1251;22536;-56
2023/09/29 06:07:54;;;;;;;16.20;9.50;;;;;;;24.51;46.87;101982.36;107071;1254;25349;-56
2023/09/29 06:10:25;;;;;;;12.90;9.60;;;;;;;24.53;46.86;101983.52;107084;1257;25475;-56
2023/09/29 06:12:52;;;;;;;12.40;9.70;;;;;;;24.55;46.95;101987.48;107095;1253;22543;-56
2023/09/29 06:15:20;;;;;;;13.80;9.20;;;;;;;24.58;46.82;101987.10;106844;1267;25481;-56
2023/09/29 06:17:47;;;;;;;11.30;9.10;;;;;;;24.61;46.91;101992.19;107136;1253;24497;-56
2023/09/29 06:20:14;;;;;;;15.60;9.50;;;;;;;24.66;46.88;101991.93;107092;1264;25379;-56
2023/09/29 06:22:41;;;;;;;12.50;9.40;;;;;;;24.70;46.92;101990.77;107171;1254;23234;-57
2023/09/29 06:25:09;;;;;;;13.10;9.30;;;;;;;24.74;46.89;101991.81;107195;1254;25327;-56
2023/09/29 06:27:36;;;;;;;15.60;8.90;;;;;;;24.79;46.98;101990.08;106881;1256;22659;-57
2023/09/29 06:30:04;;;;;;;13.90;9.90;;;;;;;24.83;46.82;101986.63;107072;1260;24384;-56
2023/09/29 06:32:31;;;;;;;11.50;9.10;;;;;;;24.88;46.67;101984.17;107199;1266;24236;-56
2023/09/29 06:34:59;;;;;;;12.60;9.10;;;;;;;24.96;46.65;101985.79;106910;1269;25350;-57
2023/09/29 06:37:26;;;;;;;13.50;9.90;;;;;;;25.03;46.49;101986.09;106981;1254;298249;-56
2023/09/29 06:39:53;;;;;;;19.40;9.30;;;;;;;25.08;46.62;101987.68;107163;1254;25340;-57
2023/09/29 06:42:20;;;;;;;13.40;9.50;;;;;;;25.14;46.56;101989.64;107107;1254;26144;-56
2023/09/29 06:44:47;;;;;;;11.50;9.30;;;;;;;25.20;46.62;101989.82;107048;1267;25328;-57
2023/09/29 06:47:14;;;;;;;15.00;8.70;;;;;;;25.27;46.58;101993.73;107181;1251;25462;-57
2023/09/29 06:49:41;;;;;;;17.20;9.80;;;;;;;25.35;46.18;101997.19;107065;1254;25334;-57
2023/09/29 06:52:08;;;;;;;14.00;9.40;;;;;;;25.38;45.93;101998.73;107224;1254;25365;-57
2023/09/29 06:54:36;;;;;;;13.40;9.90;;;;;;;25.38;45.67;102003.02;107174;1262;25343;-57
2023/09/29 06:57:03;;;;;;;16.80;9.80;;;;;;;25.38;45.83;102005.48;107166;1255;25503;-57
2023/09/29 06:59:30;;;;;;;14.70;10.30;;;;;;;25.40;45.60;102011.06;107190;1254;25319;-56
2023/09/29 07:01:57;;;;;;;13.10;9.70;;;;;;;25.40;45.70;102013.70;107197;1254;25386;-57
2023/09/29 07:04:24;;;;;;;13.40;10.20;;;;;;;25.38;45.62;102015.75;107023;1263;25319;-57
2023/09/29 07:06:51;;;;;;;13.80;10.20;;;;;;;25.36;45.71;102015.04;107055;1253;24184;-57
2023/09/29 07:09:18;;;;;;;15.00;10.60;;;;;;;25.32;45.67;102020.11;106916;1266;25356;-57
2023/09/29 07:11:45;;;;;;;13.80;10.00;;;;;;;25.28;45.83;102020.89;107088;1264;25379;-56
2023/09/29 07:14:12;;;;;;;13.10;10.00;;;;;;;25.25;45.92;102022.29;107080;1257;25567;-56
2023/09/29 07:16:42;;;;;;;13.50;9.90;;;;;;;25.24;46.19;102019.55;106862;1260;25381;-57
2023/09/29 07:19:12;;;;;;;13.10;10.00;;;;;;;25.23;45.86;102021.54;106973;1258;25327;-57
2023/09/29 07:21:40;;;;;;;14.10;9.80;;;;;;;25.24;45.81;102026.86;107054;1251;22766;-58
2023/09/29 07:24:07;;;;;;;12.50;9.60;;;;;;;25.22;45.64;102026.58;107051;1256;25395;-57
2023/09/29 07:26:35;;;;;;;12.80;9.30;;;;;;;25.23;45.76;102032.73;107016;1256;25340;-56
2023/09/29 07:29:04;;;;;;;11.40;9.40;;;;;;;25.24;45.80;102033.04;107228;1257;25402;-57
2023/09/29 07:31:35;;;;;;;13.30;9.30;;;;;;;25.25;45.90;102030.48;107092;1252;25346;-56
2023/09/29 07:34:02;;;;;;;19.60;10.50;;;;;;;25.29;46.05;102034.16;107175;1251;25317;-56
2023/09/29 07:36:31;;;;;;;12.80;8.90;;;;;;;25.29;45.87;102037.48;107075;1262;25350;-56
2023/09/29 07:38:58;;;;;;;14.80;9.30;;;;;;;25.32;45.98;102038.55;107146;1263;22537;-56
2023/09/29 07:41:26;;;;;;;11.80;9.60;;;;;;;25.38;46.01;102040.52;106883;1257;25359;-56
2023/09/29 07:43:53;;;;;;;13.60;9.60;;;;;;;25.44;45.59;102042.23;107137;1263;25346;-57
2023/09/29 07:46:20;;;;;;;14.20;9.60;;;;;;;25.52;45.33;102044.40;107160;1251;23106;-56
2023/09/29 07:48:47;;;;;;;17.50;9.00;;;;;;;25.61;45.42;102046.13;107141;1250;25399;-56
2023/09/29 07:51:15;;;;;;;15.60;10.00;;;;;;;25.70;45.17;102048.55;107096;1252;25337;-56
2023/09/29 07:53:43;;;;;;;16.00;9.10;;;;;;;25.77;44.93;102048.30;107091;1266;25397;-56
2023/09/29 07:56:10;;;;;;;12.10;9.20;;;;;;;25.85;44.64;102044.39;107074;1254;24246;-56
2023/09/29 07:58:38;;;;;;;11.40;8.60;;;;;;;25.96;44.56;102045.84;107174;1251;23254;-56
2023/09/29 08:01:06;;;;;;;14.20;9.70;;;;;;;25.98;44.39;102046.25;107149;1254;24354;-56
2023/09/29 08:03:33;;;;;;;13.20;8.70;;;;;;;26.02;44.11;102044.17;106834;1260;25328;-57
2023/09/29 08:06:01;;;;;;;13.00;9.30;;;;;;;26.04;44.08;102043.49;106884;1267;25366;-57
2023/09/29 08:08:30;;;;;;;16.20;9.50;;;;;;;26.07;43.83;102044.70;107050;1267;25468;-57
2023/09/29 08:10:56;;;;;;;16.50;9.80;;;;;;;26.10;43.84;102045.07;107163;1255;22530;-56
2023/09/29 08:13:24;;;;;;;15.40;9.70;;;;;;;26.10;43.58;102041.19;107112;1255;25423;-56
2023/09/29 08:15:51;;;;;;;11.80;9.60;;;;;;;26.09;43.53;102038.06;107076;1254;25356;-56
2023/09/29 08:18:19;;;;;;;15.30;9.50;;;;;;;26.09;43.65;102038.55;107000;1255;22515;-56
2023/09/29 08:20:52;;;;;;;11.00;8.20;;;;;;;26.11;43.59;102041.61;107043;1269;25328;-56
2023/09/29 08:23:19;;;;;;;11.10;7.90;;;;;;;26.13;43.58;102042.42;107103;1264;22782;-55
2023/09/29 08:25:46;;;;;;;11.10;8.60;;;;;;;26.15;43.45;102044.05;107052;1254;25346;-55
2023/09/29 08:28:13;;;;;;;18.70;8.20;;;;;;;26.17;43.18;102040.84;107110;1254;25458;-55
2023/09/29 08:30:41;;;;;;;12.00;7.60;;;;;;;26.20;43.14;102040.65;107097;1254;25324;-55
2023/09/29 08:33:08;;;;;;;11.60;8.30;;;;;;;26.22;42.97;102041.40;106912;1253;24203;-55
2023/09/29 08:35:57;;;;;;;18.20;7.30;;;;;;;26.26;43.08;102039.23;107189;1254;25468;-55
2023/09/29 08:38:24;;;;;;;16.00;8.00;;;;;;;26.28;42.88;102042.41;107099;1266;24337;-55
2023/09/29 08:40:54;;;;;;;11.10;7.90;;;;;;;26.28;42.62;102036.55;107100;1257;25449;-55
2023/09/29 08:43:22;;;;;;;9.60;7.50;;;;;;;26.27;42.82;102035.58;106831;1272;25356;-55
2023/09/29 08:45:49;;;;;;;11.20;7.80;;;;;;;26.26;42.76;102034.55;107023;1263;25458;-55
2023/09/29 08:48:16;;;;;;;11.20;7.60;;;;;;;26.27;43.01;102033.27;106874;1269;25359;-55
2023/09/29 08:50:44;;;;;;;10.90;7.40;;;;;;;26.28;42.76;102034.77;107089;1253;25326;-55
2023/09/29 08:53:11;;;;;;;12.90;7.00;;;;;;;26.31;42.66;102034.95;106996;1253;25328;-56
2023/09/29 08:55:39;;;;;;;10.40;7.30;;;;;;;26.35;42.82;102038.61;107103;1260;25475;-55
2023/09/29 08:58:07;;;;;;;11.00;7.10;;;;;;;26.38;42.61;102041.35;106414;1251;1002860;-55
2023/09/29 09:00:34;;;;;;;9.10;7.50;;;;;;;26.41;42.69;102045.25;107061;1266;25385;-55
2023/09/29 09:03:02;;;;;;;7.60;6.70;;;;;;;26.45;42.38;102040.95;107125;1260;25356;-56
2023/09/29 09:05:30;;;;;;;14.00;7.00;;;;;;;26.47;42.02;102039.54;106803;1259;25370;-55
2023/09/29 09:07:59;;;;;;;9.20;6.80;;;;;;;26.49;42.04;102038.15;106899;1272;22586;-54
2023/09/29 09:10:34;;;;;;;11.70;7.30;;;;;;;26.52;42.06;102032.42;107109;1266;25430;-57
2023/09/29 09:13:02;;;;;;;9.70;6.60;;;;;;;26.58;41.90;102034.18;107191;1260;25365;-57
2023/09/29 09:15:30;;;;;;;10.10;6.90;;;;;;;26.61;41.84;102031.80;106982;1254;22516;-56
2023/09/29 09:17:57;;;;;;;7.90;6.50;;;;;;;26.62;41.88;102033.83;106717;1259;25393;-57
2023/09/29 09:20:25;;;;;;;14.40;6.70;;;;;;;26.64;41.77;102034.27;106642;1257;25328;-57
2023/09/29 09:23:02;;;;;;;10.90;7.20;;;;;;;26.66;42.21;102031.61;107166;1268;25498;-57
2023/09/29 09:25:38;;;;;;;10.40;6.50;;;;;;;26.71;42.09;102031.48;107074;1251;25401;-57
2023/09/29 09:28:06;;;;;;;11.60;6.90;;;;;;;26.77;42.25;102031.25;106914;1269;25318;-56
2023/09/29 09:30:36;;;;;;;11.10;5.70;;;;;;;26.83;42.17;102033.83;107143;1257;25401;-56
2023/09/29 09:33:07;;;;;;;9.30;5.90;;;;;;;26.89;41.30;102032.71;107164;1251;25356;-57
2023/09/29 09:35:37;;;;;;;9.60;5.30;;;;;;;26.94;41.22;102033.23;107140;1251;24494;-56
2023/09/29 09:38:05;;;;;;;8.70;5.80;;;;;;;27.00;41.49;102033.17;106834;1259;25280;-56
2023/09/29 09:40:32;;;;;;;15.00;5.70;;;;;;;27.07;41.43;102028.18;106807;1270;25442;-55
2023/09/29 09:43:10;;;;;;;10.30;5.00;;;;;;;27.15;41.14;102022.30;107188;1266;25331;-56
2023/09/29 09:45:44;;;;;;;11.20;6.00;;;;;;;27.25;41.21;102022.84;106884;1260;25353;-56
2023/09/29 09:48:15;;;;;;;9.70;5.80;;;;;;;27.31;40.77;102021.27;107052;1257;25376;-56
2023/09/29 09:50:45;;;;;;;7.80;6.00;;;;;;;27.37;40.79;102016.44;107230;1266;25406;-56
2023/09/29 09:53:13;;;;;;;6.80;5.60;;;;;;;27.44;40.41;102016.85;106839;1257;25546;-56
2023/09/29 09:55:51;;;;;;;14.50;6.20;;;;;;;27.49;39.71;102014.33;107123;1254;22516;-55
2023/09/29 09:58:21;;;;;;;8.30;5.40;;;;;;;27.54;39.36;102018.10;107073;1266;25393;-56
2023/09/29 10:00:58;;;;;;;8.70;5.50;;;;;;;27.59;39.49;102017.19;107163;1257;25405;-56
2023/09/29 10:03:25;;;;;;;9.50;6.10;;;;;;;27.65;39.53;102014.79;107119;1266;25410;-56
2023/09/29 10:05:53;;;;;;;10.30;5.70;;;;;;;27.71;39.41;102010.95;107050;1257;24206;-56
2023/09/29 10:08:27;;;;;;;9.20;5.40;;;;;;;27.75;38.78;102009.92;106122;1272;1003393;-56
2023/09/29 10:11:05;;;;;;;6.90;5.60;;;;;;;27.79;38.56;102009.97;107064;1261;25497;-56
2023/09/29 10:13:38;;;;;;;6.30;5.00;;;;;;;27.84;38.17;102008.36;107049;1258;25343;-56
2023/09/29 10:16:07;;;;;;;7.70;5.20;;;;;;;27.91;37.94;102005.13;107137;1257;25347;-57
2023/09/29 10:18:35;;;;;;;12.80;5.90;;;;;;;27.97;37.59;102003.26;107121;1254;25328;-56
2023/09/29 10:21:06;;;;;;;11.00;5.70;;;;;;;28.02;37.54;102001.64;107116;1254;25464;-55
2023/09/29 10:23:48;;;;;;;7.40;5.50;;;;;;;28.08;37.47;102001.02;106859;1267;22579;-56
2023/09/29 10:26:15;;;;;;;;;;;;;;;28.13;37.08;102002.38;107066;1269;22523;-56
2023/09/29 10:28:45;;;;;;;7.20;5.30;;;;;;;28.16;36.54;101999.86;107119;1254;25340;-56
2023/09/29 10:31:14;;;;;;;8.40;5.60;;;;;;;28.16;35.96;102000.04;107236;1251;25356;-56
2023/09/29 10:33:55;;;;;;;9.00;5.00;;;;;;;28.15;35.63;101995.69;107071;1267;25321;-56
2023/09/29 10:36:28;;;;;;;;;;;;;;;28.16;35.93;101999.14;107116;1254;25404;-55
2023/09/29 10:38:59;;;;;;;7.30;5.40;;;;;;;28.21;35.92;101997.18;107128;1256;23273;-56
2023/09/29 10:41:29;;;;;;;6.20;5.00;;;;;;;28.26;35.84;101993.05;107110;1263;22643;-55
2023/09/29 10:44:04;;;;;;;7.00;5.20;;;;;;;28.32;35.28;101995.58;106996;1256;25478;-55
2023/09/29 10:46:31;;;;;;;9.00;5.00;;;;;;;28.37;34.66;101995.38;107114;1267;22611;-55
2023/09/29 10:48:59;;;;;;;6.90;4.90;;;;;;;28.41;34.19;101990.96;107103;1270;25327;-57
2023/09/29 10:51:33;;;;;;;7.70;4.40;;;;;;;28.45;33.79;101989.92;107133;1256;26484;-56
2023/09/29 10:54:06;;;;;;;11.80;4.60;;;;;;;28.50;33.67;101989.17;107076;1266;22534;-55
2023/09/29 10:56:35;;;;;;;6.20;4.40;;;;;;;28.55;33.67;101983.98;107118;1253;26630;-55
2023/09/29 10:59:07;;;;;;;5.20;4.70;;;;;;;28.59;33.56;101980.13;107070;1254;22527;-55
2023/09/29 11:01:34;;;;;;;8.60;5.00;;;;;;;28.62;33.28;101975.92;107168;1255;22523;-55
2023/09/29 11:04:10;;;;;;;11.50;4.60;;;;;;;28.64;33.01;101973.09;107056;1257;25349;-57
2023/09/29 11:06:45;;;;;;;7.10;4.90;;;;;;;28.66;32.48;101972.02;107030;1273;22615;-56
2023/09/29 11:09:19;;;;;;;7.90;5.50;;;;;;;28.68;31.98;101971.34;106845;1269;22645;-54
2023/09/29 11:11:46;;;;;;;7.50;4.60;;;;;;;28.71;31.64;101968.98;107172;1254;25328;-54
2023/09/29 11:14:14;;;;;;;5.80;5.00;;;;;;;28.74;31.33;101972.13;107150;1266;25478;-55
2023/09/29 11:16:41;;;;;;;6.70;5.30;;;;;;;28.78;31.30;101963.97;106947;1267;25328;-55
2023/09/29 11:19:11;;;;;;;9.90;4.70;;;;;;;28.82;31.06;101962.39;107201;1255;25376;-55